Time;durP1;ratioP1;P1;durP2;ratioP2;P2;SDS_P1;SDS_P2;PMS_P1;PMS_P2;Temp;Humidity;BMP_temperature;BMP_pressure;BME280_temperature;BME280_humidity;BME280_pressure;Samples;Min_cycle;Max_cycle;Signal;HPM_P1;HPM_P2
2022/03/17 00:01:42;;;;;;;72.03;30.85;;;6.20;92.90;;;;;;5053645;28;20397;-71
2022/03/17 00:04:08;;;;;;;73.55;30.23;;;6.20;93.00;;;;;;5052394;28;20466;-71
2022/03/17 00:06:34;;;;;;;65.28;28.67;;;6.10;93.10;;;;;;5051280;28;20418;-71
2022/03/17 00:09:01;;;;;;;72.55;29.45;;;6.10;93.40;;;;;;5052667;28;20104;-72
2022/03/17 00:11:28;;;;;;;72.25;30.92;;;6.10;93.20;;;;;;5053306;28;20021;-72
2022/03/17 00:13:54;;;;;;;72.57;30.95;;;6.10;93.30;;;;;;5051678;28;20086;-72
2022/03/17 00:16:20;;;;;;;77.60;30.60;;;6.00;93.30;;;;;;5052737;28;20025;-70
2022/03/17 00:18:46;;;;;;;73.75;30.70;;;6.00;93.30;;;;;;5052345;28;20056;-71
2022/03/17 00:21:12;;;;;;;76.18;30.95;;;5.90;93.40;;;;;;5052439;28;20485;-72
2022/03/17 00:23:37;;;;;;;70.15;28.98;;;5.90;93.50;;;;;;5052573;28;20481;-71
2022/03/17 00:26:03;;;;;;;72.88;30.55;;;5.80;93.50;;;;;;5050829;28;20453;-71
2022/03/17 00:28:28;;;;;;;71.25;31.45;;;5.90;93.70;;;;;;5052190;28;20104;-71
2022/03/17 00:30:54;;;;;;;77.47;30.65;;;5.90;93.60;;;;;;5051726;28;20025;-72
2022/03/17 00:33:19;;;;;;;77.82;30.88;;;5.90;93.50;;;;;;5051044;28;20025;-72
2022/03/17 00:35:46;;;;;;;75.85;29.92;;;5.80;93.60;;;;;;5051501;28;20033;-72
2022/03/17 00:38:15;;;;;;;71.40;30.20;;;5.80;93.50;;;;;;5050820;28;20432;-71
2022/03/17 00:40:42;;;;;;;80.60;31.48;;;5.80;93.60;;;;;;5051081;28;20060;-72
2022/03/17 00:43:11;;;;;;;73.18;30.38;;;5.80;93.60;;;;;;5044172;28;20025;-71
2022/03/17 00:45:37;;;;;;;79.03;31.25;;;5.70;93.60;;;;;;5051395;28;20458;-71
2022/03/17 00:48:04;;;;;;;79.80;31.23;;;5.70;93.70;;;;;;5051047;28;20032;-71
2022/03/17 00:50:30;;;;;;;71.82;29.83;;;5.70;93.70;;;;;;5052780;28;20059;-71
2022/03/17 00:52:55;;;;;;;74.88;30.77;;;5.70;93.70;;;;;;5050944;28;20057;-71
2022/03/17 00:55:22;;;;;;;73.45;33.08;;;5.60;93.90;;;;;;5051838;28;20017;-71
2022/03/17 00:57:48;;;;;;;81.60;33.67;;;5.60;93.90;;;;;;5050917;28;20432;-70
2022/03/17 01:00:14;;;;;;;69.72;30.58;;;5.60;93.90;;;;;;5050353;28;20021;-70
2022/03/17 01:02:41;;;;;;;77.93;32.92;;;5.60;93.90;;;;;;5048707;28;20072;-70
2022/03/17 01:05:07;;;;;;;79.40;32.55;;;5.50;94.00;;;;;;5041750;22;20136;-68
2022/03/17 01:07:33;;;;;;;84.40;33.67;;;5.60;94.20;;;;;;5031835;28;20112;-68
2022/03/17 01:09:59;;;;;;;78.10;30.67;;;5.60;94.00;;;;;;5014679;28;20017;-68
2022/03/17 01:12:24;;;;;;;79.22;32.72;;;5.60;93.90;;;;;;5031932;28;20394;-68
2022/03/17 01:14:50;;;;;;;75.32;32.35;;;5.50;93.80;;;;;;5047417;28;20035;-68
2022/03/17 01:17:16;;;;;;;77.63;30.60;;;5.50;93.90;;;;;;5029589;28;20025;-68
2022/03/17 01:19:41;;;;;;;74.53;32.40;;;5.50;93.90;;;;;;5016208;28;20093;-68
2022/03/17 01:22:07;;;;;;;76.82;32.30;;;5.50;94.00;;;;;;5021594;28;20108;-68
2022/03/17 01:24:33;;;;;;;75.10;31.45;;;5.50;94.00;;;;;;5053668;28;21600;-68
2022/03/17 01:26:58;;;;;;;79.60;33.20;;;5.50;94.00;;;;;;5016382;28;20032;-68
2022/03/17 01:29:26;;;;;;;78.43;32.42;;;5.50;94.00;;;;;;5033434;28;20030;-69
2022/03/17 01:31:52;;;;;;;75.30;32.38;;;5.50;94.00;;;;;;5016262;28;20053;-69
2022/03/17 01:34:18;;;;;;;80.10;33.00;;;5.50;93.90;;;;;;5034808;28;20032;-69
2022/03/17 01:36:44;;;;;;;89.00;34.40;;;5.50;93.80;;;;;;5047580;28;20033;-68
2022/03/17 01:39:10;;;;;;;80.80;32.85;;;5.50;94.20;;;;;;5033042;28;20104;-68
2022/03/17 01:41:36;;;;;;;84.72;34.10;;;5.40;93.90;;;;;;5031809;28;20258;-68
2022/03/17 01:44:01;;;;;;;84.80;34.17;;;5.40;94.00;;;;;;5031780;28;20048;-67
2022/03/17 01:46:27;;;;;;;76.25;33.25;;;5.40;93.90;;;;;;5038343;28;20044;-69
2022/03/17 01:48:53;;;;;;;82.28;34.13;;;5.40;94.00;;;;;;5031992;28;20385;-69
2022/03/17 01:51:19;;;;;;;81.55;33.33;;;5.30;94.00;;;;;;5032295;28;20064;-68
2022/03/17 01:53:44;;;;;;;84.80;33.03;;;5.30;94.00;;;;;;5032061;28;20148;-68
2022/03/17 01:56:10;;;;;;;78.85;32.47;;;5.30;94.10;;;;;;5043195;28;20032;-69
2022/03/17 01:58:36;;;;;;;88.22;33.92;;;5.20;94.10;;;;;;5052423;28;20374;-68
2022/03/17 02:01:02;;;;;;;91.22;35.53;;;5.20;94.00;;;;;;5050165;28;20048;-69
2022/03/17 02:03:28;;;;;;;84.20;36.30;;;5.30;94.10;;;;;;5031587;28;20057;-70
2022/03/17 02:05:54;;;;;;;84.65;34.50;;;5.30;94.00;;;;;;5040795;28;20041;-68
2022/03/17 02:08:20;;;;;;;87.05;35.58;;;5.30;93.90;;;;;;5026574;28;20112;-69
2022/03/17 02:13:30;;;;;;;84.95;34.90;;;5.30;93.80;;;;;;5035719;28;20032;-70
2022/03/17 02:15:56;;;;;;;78.35;33.15;;;5.30;93.80;;;;;;5039456;28;20104;-68
2022/03/17 02:18:23;;;;;;;82.03;35.63;;;5.20;93.70;;;;;;5032105;28;20033;-70
2022/03/17 02:20:49;;;;;;;83.88;34.92;;;5.20;93.80;;;;;;5014352;28;20086;-69
2022/03/17 02:26:02;;;;;;;80.68;34.80;;;5.20;93.70;;;;;;5040934;28;20094;-68
2022/03/17 02:28:30;;;;;;;81.70;35.03;;;5.10;93.90;;;;;;5031162;28;20041;-69
2022/03/17 02:30:56;;;;;;;85.50;33.83;;;5.10;93.60;;;;;;5012321;28;20474;-68
2022/03/17 02:33:22;;;;;;;82.22;34.83;;;5.10;93.60;;;;;;5025625;28;20029;-69
2022/03/17 02:35:49;;;;;;;79.88;35.60;;;5.10;93.60;;;;;;5034589;28;20048;-70
2022/03/17 02:38:16;;;;;;;82.22;35.00;;;5.10;93.60;;;;;;5036659;28;20079;-68
2022/03/17 02:40:45;;;;;;;90.93;35.33;;;5.00;93.60;;;;;;5024333;28;20033;-68
2022/03/17 02:43:14;;;;;;;81.85;35.20;;;5.10;93.60;;;;;;5012135;28;20083;-69
2022/03/17 02:45:41;;;;;;;84.53;35.38;;;5.00;93.60;;;;;;5018774;28;20017;-69
2022/03/17 02:48:08;;;;;;;82.10;34.00;;;5.00;93.60;;;;;;5033516;28;20078;-68
2022/03/17 02:50:34;;;;;;;81.10;35.38;;;5.00;93.60;;;;;;5034438;28;20411;-68
2022/03/17 02:53:05;;;;;;;88.95;34.85;;;5.00;93.50;;;;;;5017507;28;20642;-68
2022/03/17 02:55:33;;;;;;;84.47;36.22;;;5.00;93.40;;;;;;5034565;28;20362;-69
2022/03/17 02:57:58;;;;;;;81.97;33.78;;;5.00;93.40;;;;;;5017586;28;20371;-68
2022/03/17 03:00:24;;;;;;;84.30;34.65;;;5.00;93.30;;;;;;5019667;28;20080;-69
2022/03/17 03:02:49;;;;;;;79.65;33.90;;;5.00;93.20;;;;;;5027973;28;20378;-69
2022/03/17 03:05:15;;;;;;;82.90;35.80;;;5.00;93.20;;;;;;5061799;28;20052;-69
2022/03/17 03:07:41;;;;;;;88.45;36.90;;;4.90;93.30;;;;;;5041632;28;20493;-68
2022/03/17 03:10:07;;;;;;;86.55;35.75;;;4.90;93.40;;;;;;5033110;28;20094;-68
2022/03/17 03:12:34;;;;;;;85.93;35.33;;;4.90;93.20;;;;;;5034957;28;20416;-67
2022/03/17 03:14:59;;;;;;;86.38;36.67;;;4.90;93.10;;;;;;5034477;28;20029;-68
2022/03/17 03:17:25;;;;;;;84.15;36.13;;;4.90;93.10;;;;;;5033889;28;20108;-69
2022/03/17 03:19:51;;;;;;;78.13;35.28;;;4.90;93.00;;;;;;5037387;28;20025;-68
2022/03/17 03:22:17;;;;;;;85.82;35.45;;;4.90;93.00;;;;;;5054602;28;20028;-69
2022/03/17 03:24:43;;;;;;;87.40;36.35;;;5.00;92.80;;;;;;5036097;28;20056;-68
2022/03/17 03:27:09;;;;;;;84.43;36.92;;;5.00;92.70;;;;;;5045068;28;20021;-69
2022/03/17 03:29:34;;;;;;;89.47;36.33;;;5.00;92.70;;;;;;5035094;28;20025;-67
2022/03/17 03:32:06;;;;;;;73.90;33.30;;;4.90;92.60;;;;;;5045311;28;20090;-70
2022/03/17 03:34:33;;;;;;;81.05;36.60;;;4.90;92.60;;;;;;5017036;28;20036;-67
2022/03/17 03:39:43;;;;;;;75.85;35.38;;;5.00;92.50;;;;;;5034621;28;20036;-68
2022/03/17 03:42:10;;;;;;;91.75;36.95;;;4.90;92.50;;;;;;5033001;28;20064;-68
2022/03/17 03:44:36;;;;;;;81.57;36.58;;;4.80;92.50;;;;;;5033651;28;20030;-68
2022/03/17 03:47:04;;;;;;;81.50;34.67;;;4.90;92.60;;;;;;5030842;28;20021;-68
2022/03/17 03:49:29;;;;;;;83.65;34.80;;;4.90;92.40;;;;;;5033586;28;20136;-67
2022/03/17 03:51:55;;;;;;;82.25;36.67;;;4.80;92.40;;;;;;5036290;28;20101;-69
2022/03/17 03:54:21;;;;;;;85.68;37.58;;;4.80;92.50;;;;;;5053673;28;20077;-70
2022/03/17 03:56:49;;;;;;;88.55;36.92;;;4.80;92.40;;;;;;5048769;28;20022;-69
2022/03/17 03:59:20;;;;;;;81.93;34.95;;;4.80;92.50;;;;;;5039699;28;20053;-67
2022/03/17 04:01:50;;;;;;;82.50;35.80;;;4.90;92.30;;;;;;5039706;28;20021;-67
2022/03/17 04:04:18;;;;;;;73.43;31.63;;;4.80;92.20;;;;;;5054120;28;20032;-67
2022/03/17 04:06:47;;;;;;;86.70;35.97;;;4.80;92.20;;;;;;5046276;28;20494;-67
2022/03/17 04:09:13;;;;;;;84.20;33.78;;;5.00;92.30;;;;;;5041169;28;20109;-69
2022/03/17 04:11:42;;;;;;;84.13;37.07;;;4.90;91.90;;;;;;5033708;28;20029;-67
2022/03/17 04:14:09;;;;;;;90.30;38.35;;;4.80;92.00;;;;;;5033497;28;20433;-67
2022/03/17 04:16:35;;;;;;;92.32;39.30;;;4.80;92.10;;;;;;5015092;28;20385;-67
2022/03/17 04:19:01;;;;;;;87.32;36.88;;;4.80;92.00;;;;;;5033216;28;20034;-70
2022/03/17 04:21:26;;;;;;;90.88;39.30;;;4.80;91.90;;;;;;5013172;28;20026;-68
2022/03/17 04:23:52;;;;;;;85.78;37.65;;;4.80;91.90;;;;;;5026906;28;20555;-68
2022/03/17 04:26:18;;;;;;;85.88;38.15;;;4.80;92.00;;;;;;5018728;28;20048;-66
2022/03/17 04:28:43;;;;;;;80.63;36.13;;;4.80;91.90;;;;;;5030918;28;20101;-68
2022/03/17 04:31:09;;;;;;;87.73;36.47;;;4.80;91.90;;;;;;5032547;28;20076;-67
2022/03/17 04:33:35;;;;;;;92.80;38.43;;;4.80;91.90;;;;;;5012876;28;20018;-68
2022/03/17 04:36:02;;;;;;;80.40;33.73;;;4.80;91.90;;;;;;5013131;28;20030;-68
2022/03/17 04:38:28;;;;;;;86.13;38.47;;;4.80;91.90;;;;;;5031601;28;20029;-68
2022/03/17 04:40:54;;;;;;;94.40;39.63;;;4.70;92.10;;;;;;5035104;28;20053;-69
2022/03/17 04:43:20;;;;;;;90.20;40.47;;;4.70;91.90;;;;;;5041871;28;20155;-68
2022/03/17 04:45:46;;;;;;;86.38;38.92;;;4.70;92.00;;;;;;5036851;28;20083;-70
2022/03/17 04:48:15;;;;;;;87.73;38.60;;;4.70;92.00;;;;;;5032681;28;20041;-69
2022/03/17 04:50:41;;;;;;;89.28;38.80;;;4.70;92.10;;;;;;5042821;28;20026;-69
2022/03/17 04:55:52;;;;;;;90.05;39.42;;;4.60;92.00;;;;;;5032594;28;20032;-69
2022/03/17 04:58:18;;;;;;;92.63;41.75;;;4.60;92.10;;;;;;4983891;28;20026;-68
2022/03/17 05:00:44;;;;;;;88.25;40.00;;;4.60;92.10;;;;;;5032538;28;20101;-70
2022/03/17 05:03:10;;;;;;;98.90;39.53;;;4.70;92.20;;;;;;5031983;28;20121;-69
2022/03/17 05:05:36;;;;;;;93.80;38.55;;;4.70;92.10;;;;;;5032185;28;20126;-68
2022/03/17 05:08:02;;;;;;;92.40;39.57;;;4.70;92.00;;;;;;5029176;28;20030;-68
2022/03/17 05:10:28;;;;;;;97.60;39.67;;;4.60;92.00;;;;;;5033719;28;20047;-66
2022/03/17 05:12:55;;;;;;;91.43;37.20;;;4.70;92.00;;;;;;5034634;28;20448;-65
2022/03/17 05:15:21;;;;;;;95.77;37.93;;;4.70;92.00;;;;;;5034984;28;20021;-64
2022/03/17 05:17:49;;;;;;;95.20;40.93;;;4.70;92.20;;;;;;5034506;28;20036;-67
2022/03/17 05:20:15;;;;;;;93.07;40.83;;;4.60;92.00;;;;;;5035208;28;20045;-65
2022/03/17 05:22:41;;;;;;;88.87;38.77;;;4.60;92.10;;;;;;5033409;28;20037;-65
2022/03/17 05:25:08;;;;;;;102.15;42.38;;;4.60;92.20;;;;;;5036715;28;20033;-65
2022/03/17 05:27:52;;;;;;;97.57;42.28;;;4.50;92.30;;;;;;5033473;28;20025;-67
2022/03/17 05:30:19;;;;;;;101.93;42.10;;;4.50;92.30;;;;;;5034791;28;20029;-65
2022/03/17 05:32:47;;;;;;;101.93;44.33;;;4.50;92.30;;;;;;5034725;28;20124;-66
2022/03/17 05:35:14;;;;;;;92.43;41.93;;;4.50;92.30;;;;;;5025564;28;20033;-66
2022/03/17 05:37:40;;;;;;;102.47;42.67;;;4.50;92.30;;;;;;5048803;28;20029;-67
2022/03/17 05:40:14;;;;;;;108.33;44.17;;;4.50;92.30;;;;;;5035523;28;20025;-67
2022/03/17 05:42:40;;;;;;;102.47;44.53;;;4.50;92.40;;;;;;5040243;28;20029;-65
2022/03/17 05:45:07;;;;;;;100.87;42.60;;;4.60;92.40;;;;;;5026310;28;20120;-65
2022/03/17 05:47:40;;;;;;;106.47;44.70;;;4.60;92.10;;;;;;5035955;28;20365;-65
2022/03/17 05:50:09;;;;;;;108.37;44.87;;;4.70;92.10;;;;;;5015856;28;20031;-66
2022/03/17 05:52:35;;;;;;;99.97;43.67;;;4.70;92.00;;;;;;5033276;28;20021;-65
2022/03/17 05:55:01;;;;;;;98.38;44.92;;;4.80;91.90;;;;;;5033696;28;20028;-66
2022/03/17 05:57:27;;;;;;;101.55;44.38;;;4.80;91.70;;;;;;5035455;28;20385;-67
2022/03/17 05:59:52;;;;;;;106.20;45.77;;;4.80;91.70;;;;;;5035009;28;20029;-67
2022/03/17 06:02:18;;;;;;;99.30;43.45;;;4.80;91.70;;;;;;5014012;28;20030;-66
2022/03/17 06:04:43;;;;;;;105.93;45.80;;;4.80;91.70;;;;;;5032834;28;20032;-66
2022/03/17 06:07:10;;;;;;;100.72;46.58;;;4.90;91.60;;;;;;5036541;28;20086;-65
2022/03/17 06:09:38;;;;;;;100.88;44.13;;;4.90;91.50;;;;;;5043758;28;20056;-65
2022/03/17 06:12:05;;;;;;;103.45;42.72;;;4.90;91.40;;;;;;5034776;28;20013;-65
2022/03/17 06:14:32;;;;;;;105.63;43.90;;;4.90;91.50;;;;;;5040661;28;20200;-67
2022/03/17 06:16:59;;;;;;;107.03;43.17;;;4.90;91.50;;;;;;5021829;28;20032;-65
2022/03/17 06:19:24;;;;;;;107.33;45.87;;;4.90;91.40;;;;;;5028234;28;20044;-65
2022/03/17 06:21:50;;;;;;;101.22;45.15;;;4.90;91.30;;;;;;5034497;28;20046;-65
2022/03/17 06:24:16;;;;;;;105.10;45.63;;;5.00;91.40;;;;;;5036157;28;20044;-65
2022/03/17 06:26:41;;;;;;;103.60;47.13;;;4.90;91.40;;;;;;5038501;28;20029;-65
2022/03/17 06:29:07;;;;;;;107.55;45.30;;;5.00;91.40;;;;;;5036562;28;20049;-66
2022/03/17 06:31:33;;;;;;;107.20;46.28;;;5.00;91.20;;;;;;5036988;28;20091;-65
2022/03/17 06:33:59;;;;;;;102.55;44.35;;;5.00;91.20;;;;;;5039237;28;20100;-64
2022/03/17 06:36:26;;;;;;;104.65;45.40;;;5.00;91.20;;;;;;5040521;28;20554;-66
2022/03/17 06:38:51;;;;;;;103.15;42.83;;;5.00;91.20;;;;;;5020377;28;20037;-65
2022/03/17 06:41:17;;;;;;;101.35;44.00;;;5.00;91.20;;;;;;5038723;28;20401;-66
2022/03/17 06:43:42;;;;;;;103.57;43.90;;;5.00;91.20;;;;;;5036356;28;20460;-65
2022/03/17 06:46:08;;;;;;;110.30;46.05;;;5.00;91.20;;;;;;5035720;28;20040;-65
2022/03/17 06:48:34;;;;;;;106.05;45.88;;;5.00;91.10;;;;;;5036686;28;20057;-65
2022/03/17 06:51:00;;;;;;;104.68;46.45;;;5.00;91.20;;;;;;5037167;28;20160;-66
2022/03/17 06:53:26;;;;;;;103.28;47.53;;;5.00;91.10;;;;;;5037385;28;20021;-66
2022/03/17 06:55:52;;;;;;;110.68;48.63;;;5.00;91.00;;;;;;5035449;28;20026;-65
2022/03/17 06:58:17;;;;;;;114.78;45.58;;;5.10;91.00;;;;;;5037694;28;20116;-65
2022/03/17 07:00:43;;;;;;;109.43;47.13;;;5.10;90.90;;;;;;5035207;28;20033;-65
2022/03/17 07:03:08;;;;;;;109.68;48.45;;;5.20;90.80;;;;;;5037361;28;20065;-66
2022/03/17 07:05:34;;;;;;;108.13;47.38;;;5.20;90.80;;;;;;5059440;22;20060;-70
2022/03/17 07:08:00;;;;;;;110.65;48.20;;;5.20;90.70;;;;;;5032732;28;20116;-70
2022/03/17 07:10:27;;;;;;;115.20;48.50;;;5.30;90.50;;;;;;5034430;28;20021;-70
2022/03/17 07:12:53;;;;;;;107.80;47.08;;;5.30;90.50;;;;;;5033829;28;20021;-69
2022/03/17 07:15:19;;;;;;;110.15;49.05;;;5.30;90.40;;;;;;5034630;28;20378;-71
2022/03/17 07:17:45;;;;;;;111.28;48.25;;;5.40;90.30;;;;;;5033064;28;20021;-69
2022/03/17 07:20:12;;;;;;;107.10;48.92;;;5.40;90.20;;;;;;5033042;28;20025;-70
2022/03/17 07:22:41;;;;;;;106.15;47.80;;;5.60;90.10;;;;;;5034206;28;20492;-70
2022/03/17 07:25:09;;;;;;;102.82;45.17;;;5.60;89.80;;;;;;5032661;28;20022;-71
2022/03/17 07:27:40;;;;;;;108.93;48.20;;;5.60;89.60;;;;;;5033603;28;20449;-71
2022/03/17 07:30:08;;;;;;;103.78;48.70;;;5.70;89.80;;;;;;5022782;28;20147;-70
2022/03/17 07:32:33;;;;;;;108.78;49.25;;;5.70;89.20;;;;;;5036811;28;20045;-69
2022/03/17 07:34:59;;;;;;;108.25;49.75;;;5.90;89.10;;;;;;5053969;28;20288;-70
2022/03/17 07:37:24;;;;;;;97.28;48.10;;;5.90;88.80;;;;;;5046088;28;20021;-70
2022/03/17 07:39:50;;;;;;;106.28;47.38;;;6.00;88.30;;;;;;5043302;28;20073;-69
2022/03/17 07:42:15;;;;;;;104.18;47.40;;;6.10;87.70;;;;;;5032176;28;20033;-69
2022/03/17 07:44:41;;;;;;;105.93;47.80;;;6.10;87.50;;;;;;5046714;28;20039;-70
2022/03/17 07:47:09;;;;;;;104.00;48.38;;;6.00;87.50;;;;;;5034326;28;20124;-70
2022/03/17 07:49:38;;;;;;;109.20;50.55;;;6.10;87.80;;;;;;5036794;28;20051;-70
2022/03/17 07:52:05;;;;;;;106.82;48.60;;;6.20;87.30;;;;;;5037199;28;20127;-69
2022/03/17 07:54:32;;;;;;;105.50;49.15;;;6.20;86.90;;;;;;5031317;28;20030;-69
2022/03/17 07:56:58;;;;;;;107.93;48.08;;;6.30;86.50;;;;;;5041445;28;20036;-69
2022/03/17 07:59:24;;;;;;;106.53;49.33;;;6.30;86.40;;;;;;5052662;28;20135;-70
2022/03/17 08:01:51;;;;;;;111.68;49.92;;;6.30;86.40;;;;;;5038917;28;20456;-70
2022/03/17 08:04:17;;;;;;;107.97;50.53;;;6.50;85.60;;;;;;5034146;28;20079;-69
2022/03/17 08:06:42;;;;;;;111.90;50.63;;;6.50;85.30;;;;;;5031523;28;20097;-71
2022/03/17 08:09:08;;;;;;;108.40;50.20;;;6.60;85.50;;;;;;5032132;28;20419;-70
2022/03/17 08:11:34;;;;;;;105.97;51.08;;;6.80;84.60;;;;;;5033267;28;20505;-69
2022/03/17 08:14:00;;;;;;;108.72;50.30;;;6.70;84.50;;;;;;5031397;28;20021;-69
2022/03/17 08:16:25;;;;;;;113.88;51.80;;;6.70;84.80;;;;;;5030248;28;20441;-69
2022/03/17 08:18:51;;;;;;;109.43;49.03;;;6.90;84.50;;;;;;5033680;28;20034;-70
2022/03/17 08:21:17;;;;;;;103.65;48.85;;;7.00;83.90;;;;;;5033850;28;20088;-74
2022/03/17 08:23:43;;;;;;;101.28;47.40;;;7.20;82.80;;;;;;5031258;28;20037;-69
2022/03/17 08:26:09;;;;;;;110.65;49.05;;;7.20;82.70;;;;;;5030431;28;20042;-69
2022/03/17 08:28:34;;;;;;;113.15;49.50;;;7.00;83.50;;;;;;5032111;28;20025;-70
2022/03/17 08:31:00;;;;;;;107.05;50.03;;;7.00;82.60;;;;;;5030284;28;20037;-69
2022/03/17 08:33:26;;;;;;;112.60;47.97;;;7.00;82.70;;;;;;5032171;28;20036;-70
2022/03/17 08:35:52;;;;;;;105.28;47.88;;;7.10;82.70;;;;;;5031925;28;20385;-69
2022/03/17 08:38:18;;;;;;;112.38;50.00;;;7.20;82.30;;;;;;5029297;28;20496;-69
2022/03/17 08:40:44;;;;;;;104.32;46.42;;;7.30;81.80;;;;;;5032680;28;20108;-70
2022/03/17 08:43:12;;;;;;;98.47;44.55;;;7.30;81.50;;;;;;5036274;28;20106;-69
2022/03/17 08:51:09;;;;;;;106.45;47.78;;;7.30;81.00;;;;;;5044581;28;20413;-69
2022/03/17 08:53:35;;;;;;;105.75;48.38;;;7.60;80.60;;;;;;5043768;28;20056;-71
2022/03/17 08:56:02;;;;;;;102.10;48.40;;;7.70;79.70;;;;;;5042012;28;20524;-69
2022/03/17 08:58:29;;;;;;;99.30;45.28;;;7.70;79.30;;;;;;5031924;28;20068;-75
2022/03/17 09:00:55;;;;;;;98.28;46.03;;;7.70;79.70;;;;;;5029745;28;20025;-70
2022/03/17 09:03:22;;;;;;;97.60;46.47;;;7.80;79.00;;;;;;5029858;28;20540;-69
2022/03/17 09:05:47;;;;;;;107.38;47.65;;;7.80;79.20;;;;;;5029428;28;20033;-70
2022/03/17 09:08:13;;;;;;;98.15;45.63;;;7.90;78.70;;;;;;5030713;28;20033;-71
2022/03/17 09:10:39;;;;;;;101.65;47.20;;;7.90;78.00;;;;;;5031501;28;20032;-71
2022/03/17 09:13:09;;;;;;;103.85;45.58;;;7.90;77.50;;;;;;5031403;28;20537;-70
2022/03/17 09:15:38;;;;;;;100.22;45.08;;;8.00;77.70;;;;;;5032004;28;20507;-69
2022/03/17 09:18:06;;;;;;;90.68;45.63;;;8.10;77.70;;;;;;5030813;28;20036;-69
2022/03/17 09:20:31;;;;;;;98.85;46.45;;;8.00;77.10;;;;;;5030424;28;20116;-71
2022/03/17 09:22:57;;;;;;;101.28;47.55;;;8.10;77.40;;;;;;5030359;28;20465;-71
2022/03/17 09:25:26;;;;;;;98.78;47.10;;;8.20;77.10;;;;;;5032059;28;20421;-72
2022/03/17 09:27:52;;;;;;;104.25;47.53;;;8.30;76.60;;;;;;5030576;28;20037;-70
2022/03/17 09:30:18;;;;;;;97.95;47.45;;;8.30;76.60;;;;;;5031311;28;20402;-70
2022/03/17 09:32:46;;;;;;;95.07;44.80;;;8.30;76.40;;;;;;5031067;28;20099;-71
2022/03/17 09:35:13;;;;;;;99.45;46.10;;;8.50;76.30;;;;;;5031038;28;20116;-70
2022/03/17 09:37:40;;;;;;;94.00;45.67;;;8.60;75.20;;;;;;5030426;28;20482;-71
2022/03/17 09:40:07;;;;;;;95.28;46.28;;;8.60;74.60;;;;;;5030111;28;20029;-70
2022/03/17 09:42:33;;;;;;;103.63;47.17;;;8.70;74.40;;;;;;5030979;28;20518;-71
2022/03/17 09:44:59;;;;;;;92.50;42.42;;;8.80;74.40;;;;;;5031747;28;20409;-70
2022/03/17 09:47:27;;;;;;;90.32;43.47;;;8.80;73.20;;;;;;5033007;28;20030;-70
2022/03/17 09:49:54;;;;;;;93.20;45.72;;;8.80;72.40;;;;;;5033891;28;20029;-73
2022/03/17 09:52:21;;;;;;;90.00;42.92;;;8.90;72.90;;;;;;5030874;28;20481;-70
2022/03/17 09:54:48;;;;;;;89.65;43.88;;;9.00;71.70;;;;;;5032159;28;20064;-70
2022/03/17 09:57:16;;;;;;;90.03;43.20;;;9.10;71.40;;;;;;5034579;28;20022;-70
2022/03/17 09:59:43;;;;;;;91.70;43.00;;;9.10;71.10;;;;;;5036469;28;20051;-70
2022/03/17 10:02:15;;;;;;;85.88;41.95;;;9.10;70.30;;;;;;5038948;28;20039;-69
2022/03/17 10:04:46;;;;;;;92.57;44.08;;;9.30;70.50;;;;;;5041778;28;20048;-69
2022/03/17 10:07:12;;;;;;;83.03;42.05;;;9.40;69.30;;;;;;5041091;28;20374;-69
2022/03/17 10:09:38;;;;;;;84.32;42.88;;;9.50;68.50;;;;;;5041100;28;20029;-69
2022/03/17 10:12:10;;;;;;;87.60;43.58;;;9.50;68.30;;;;;;5039947;28;20547;-70
2022/03/17 10:14:38;;;;;;;82.75;40.63;;;9.60;68.40;;;;;;5037528;28;20017;-71
2022/03/17 10:17:05;;;;;;;85.25;42.28;;;9.60;68.00;;;;;;5034321;28;20401;-70
2022/03/17 10:19:33;;;;;;;82.60;42.95;;;9.60;68.00;;;;;;5033947;28;20067;-71
2022/03/17 10:22:14;;;;;;;86.35;41.58;;;9.80;67.40;;;;;;5035172;28;20117;-70
2022/03/17 10:24:52;;;;;;;88.35;41.38;;;9.80;67.30;;;;;;5034156;28;20033;-71
2022/03/17 10:27:40;;;;;;;82.88;41.78;;;9.90;67.00;;;;;;5031993;28;20091;-71
2022/03/17 10:30:07;;;;;;;83.38;41.83;;;10.00;67.30;;;;;;5034091;28;20457;-70
2022/03/17 10:32:32;;;;;;;85.00;42.30;;;10.00;66.50;;;;;;5029099;28;20017;-69
2022/03/17 10:34:58;;;;;;;83.03;43.28;;;10.00;66.80;;;;;;5033569;28;20025;-69
2022/03/17 10:37:25;;;;;;;86.63;42.38;;;10.10;66.30;;;;;;5034553;28;20083;-68
2022/03/17 10:39:56;;;;;;;81.85;42.28;;;10.00;65.90;;;;;;5033954;28;20103;-69
2022/03/17 10:42:26;;;;;;;84.18;42.47;;;10.00;66.30;;;;;;5029585;28;20025;-69
2022/03/17 10:44:55;;;;;;;88.20;42.25;;;10.00;65.50;;;;;;5036370;28;20033;-68
2022/03/17 10:47:26;;;;;;;86.47;41.42;;;10.10;65.70;;;;;;5035313;28;20071;-69
2022/03/17 10:50:20;;;;;;;79.93;40.20;;;10.20;65.80;;;;;;5034581;28;20108;-69
2022/03/17 10:52:51;;;;;;;85.00;42.45;;;10.30;65.00;;;;;;5017394;28;20029;-69
2022/03/17 10:55:27;;;;;;;80.65;41.45;;;10.40;64.80;;;;;;5047906;28;20071;-68
2022/03/17 10:58:16;;;;;;;81.88;41.70;;;10.30;64.10;;;;;;5032962;28;20048;-69
2022/03/17 11:00:47;;;;;;;84.10;42.42;;;10.30;64.50;;;;;;5030101;28;20022;-69
2022/03/17 11:03:14;;;;;;;83.72;41.65;;;10.40;64.30;;;;;;5034116;28;20026;-69
2022/03/17 11:05:40;;;;;;;86.43;41.83;;;10.60;64.10;;;;;;5034027;28;20033;-70
2022/03/17 11:08:10;;;;;;;81.43;41.38;;;10.60;63.60;;;;;;5021974;28;20510;-68
2022/03/17 11:10:41;;;;;;;87.35;42.85;;;10.80;63.40;;;;;;5024747;28;20507;-69
2022/03/17 11:13:11;;;;;;;86.50;42.70;;;10.80;62.50;;;;;;5032632;28;20057;-69
2022/03/17 11:15:39;;;;;;;88.32;42.75;;;10.90;62.70;;;;;;5031903;28;20021;-69
2022/03/17 11:18:21;;;;;;;89.47;42.30;;;11.00;61.40;;;;;;5033094;28;20116;-69
2022/03/17 11:20:47;;;;;;;76.68;40.35;;;10.90;62.00;;;;;;5026414;28;20071;-69
2022/03/17 11:23:25;;;;;;;85.35;41.63;;;11.00;61.40;;;;;;5022624;28;20033;-69
2022/03/17 11:25:57;;;;;;;80.28;41.38;;;11.10;61.50;;;;;;5032841;28;20090;-69
2022/03/17 11:28:41;;;;;;;85.63;41.72;;;11.10;60.60;;;;;;5034467;28;20029;-69
2022/03/17 11:31:08;;;;;;;82.75;40.35;;;11.10;60.80;;;;;;5034197;28;20022;-70
2022/03/17 11:33:44;;;;;;;74.47;40.65;;;11.20;60.10;;;;;;5033653;28;20534;-69
2022/03/17 11:36:10;;;;;;;79.47;40.28;;;11.30;60.10;;;;;;5032378;28;20028;-69
2022/03/17 11:38:43;;;;;;;75.32;39.15;;;11.10;60.20;;;;;;5036040;28;20033;-74
2022/03/17 11:41:28;;;;;;;82.78;40.05;;;;;;;;;;5017227;28;20034;-70
2022/03/17 11:43:54;;;;;;;76.82;38.88;;;;;;;;;;5030543;28;20032;-70
2022/03/17 11:46:24;;;;;;;73.97;38.20;;;;;;;;;;5032860;28;20436;-70
2022/03/17 11:48:51;;;;;;;77.50;39.55;;;;;;;;;;5033743;28;20032;-69
2022/03/17 11:51:18;;;;;;;76.97;38.63;;;;;;;;;;5032559;28;20037;-70
2022/03/17 11:53:48;;;;;;;81.47;38.20;;;;;;;;;;5031959;28;20128;-70
2022/03/17 11:56:35;;;;;;;74.65;38.17;;;;;;;;;;5033031;28;20108;-69
2022/03/17 11:59:01;;;;;;;70.82;38.17;;;;;;;;;;5038269;28;20462;-69
2022/03/17 12:01:34;;;;;;;72.03;37.83;;;;;;;;;;5032388;28;20026;-71
2022/03/17 12:04:07;;;;;;;69.05;36.28;;;;;;;;;;5029996;28;20017;-68
2022/03/17 12:06:34;;;;;;;69.78;35.58;;;;;;;;;;5033440;28;20520;-68
2022/03/17 12:09:04;;;;;;;68.05;36.00;;;;;;;;;;5033134;28;20489;-68
2022/03/17 12:11:30;;;;;;;68.75;36.67;;;;;;;;;;5031521;28;20025;-68
2022/03/17 12:14:14;;;;;;;73.32;36.15;;;;;;;;;;5032006;28;20370;-68
2022/03/17 12:16:41;;;;;;;72.97;35.95;;;;;;;;;;5045604;28;20033;-68
2022/03/17 12:19:07;;;;;;;65.43;35.35;;;;;;;;;;5032172;28;20045;-69
2022/03/17 12:21:52;;;;;;;65.82;35.38;;;;;;;;;;5048097;28;20009;-70
2022/03/17 12:24:35;;;;;;;71.97;37.05;;;;;;;;;;5029777;28;20497;-69
2022/03/17 12:27:03;;;;;;;67.63;36.58;;;;;;;;;;5011817;28;20038;-68
2022/03/17 12:29:29;;;;;;;72.20;36.78;;;;;;;;;;5020748;28;20262;-68
2022/03/17 12:31:57;;;;;;;73.18;36.85;;;;;;;;;;5032820;28;20030;-69
2022/03/17 12:34:23;;;;;;;71.53;37.20;;;;;;;;;;5031283;28;20034;-69
2022/03/17 12:36:49;;;;;;;78.47;37.92;;;;;;;;;;5031885;28;20021;-69
2022/03/17 12:39:16;;;;;;;82.47;41.17;;;;;;;;;;5031682;28;20120;-68
2022/03/17 12:41:42;;;;;;;66.72;35.83;;;;;;;;;;5032314;28;20158;-68
2022/03/17 12:44:08;;;;;;;69.75;36.13;;;;;;;;;;5031953;28;20036;-70
2022/03/17 12:46:34;;;;;;;72.97;36.55;;;;;;;;;;5030396;28;20021;-68
2022/03/17 12:49:07;;;;;;;67.78;35.15;;;;;;;;;;5019325;28;20033;-68
2022/03/17 12:51:33;;;;;;;65.03;34.97;;;;;;;;;;5028654;28;20036;-69
2022/03/17 12:54:04;;;;;;;67.72;34.55;;;;;;;;;;5025228;28;20033;-70
2022/03/17 12:56:30;;;;;;;68.43;35.08;;;;;;;;;;5031674;28;20390;-69
2022/03/17 12:58:56;;;;;;;67.85;34.65;;;;;;;;;;5029994;28;20457;-68
2022/03/17 13:01:22;;;;;;;70.10;34.40;;;;;;;;;;5025618;28;20042;-69